Fairbanks International, AK

1:12 AM AKDT on August 29, 2016 (GMT -0800)
APRSWXNET | | Change Station

Elev 597 ft 64.86 °N, 147.85 °W | Updated 37 minutes ago

Partly Cloudy
Partly Cloudy
49 °F
Feels Like 49 °F
N
0
Wind Variable Wind from NNW
Gusts 0.0 mph

Today
High -- | Low -- °F
--% Chance of Precip.
Yesterday
High -- | Low -- °F
Precip. -- in
Pressure 30.24 in
Visibility 10.0 miles
Clouds Few 7000 ft
Windchill 49 °F
Dew Point 43 °F
Humidity 81%
Rainfall in
Snow Depth Not available.
6:24 AM 9:17 PM
Waning Crescent, 10% visible
METAR PAFA 290853Z 02006KT 10SM FEW070 11/06 A3023 RMK AO2 SLP239 T01060061 402110094 51006
Pressure 30.24 in
Visibility 10.0 miles
Clouds Few 7000 ft
Windchill 49 °F
Dew Point 43 °F
Humidity 81%
Rainfall in
Snow Depth Not available.
6:24 AM 9:17 PM
Waning Crescent, 10% visible
METAR PAFA 290853Z 02006KT 10SM FEW070 11/06 A3023 RMK AO2 SLP239 T01060061 402110094 51006

10-Day Weather Forecast

Almanac

Astronomy

Aug. 29, 2016 Rise Set
Actual Time
Civil Twilight
Nautical Twilight
Astronomical Twilight
Moon
Length of Visible Light
Length of Day
Tomorrow will be .
, % of the Moon is Illuminated

Today's Extremes

State Highs State Lows

Community

WunderPhotos

Upload Photos

1,935,798 photos uploaded!

WunderBlog® & News

Nearby

Air Quality

  Air Quality AQ Index Pollutant
Not available.

Snow Depth

Station Depth Elevation

Earthquake Activity

City Distance Mag. Time & Date
Minimum magnitude displayed is 2.5.

Coastal Water Temperatures

Place Temperature

Stations

Nearby Weather Stations

Station Location Temp. Windchill Dew Point Humidity Wind Precip. Elev Updated Type
                   

Watches & Warnings

There are currently no watches in effect.